createdAt,value
2023-05-05T01:31:18.482Z,12.53
2023-05-05T01:34:09.303Z,12.73
2023-05-05T01:36:42.642Z,12.84
2023-05-05T01:39:33.231Z,12.89
2023-05-05T01:42:08.120Z,13.12
2023-05-05T01:44:56.977Z,13.26
2023-05-05T01:47:26.724Z,13.29
2023-05-05T01:49:57.404Z,13.62
2023-05-05T01:52:28.429Z,13.67
2023-05-05T01:54:59.245Z,13.82
2023-05-05T01:57:47.196Z,13.95
2023-05-05T02:00:18.462Z,14.01
2023-05-05T02:02:49.906Z,14.05
2023-05-05T02:05:26.388Z,14.09
2023-05-05T02:08:15.655Z,13.95
2023-05-05T02:10:50.890Z,14.23
2023-05-05T02:13:24.093Z,14.09
2023-05-05T02:16:12.123Z,14.52
2023-05-05T02:18:42.537Z,14.64
2023-05-05T02:21:14.714Z,14.71
2023-05-05T02:23:43.998Z,15.04
2023-05-05T02:26:18.048Z,15.14
2023-05-05T02:28:53.533Z,15.21
2023-05-05T02:31:25.430Z,15.34
2023-05-05T02:33:58.074Z,15.32
2023-05-05T02:36:31.802Z,15.44
2023-05-05T02:39:05.107Z,15.66
2023-05-05T02:41:36.603Z,15.54
2023-05-05T02:44:43.024Z,15.94
2023-05-05T02:47:12.210Z,15.89
2023-05-05T02:49:42.017Z,15.84
2023-05-05T02:52:12.906Z,15.60
2023-05-05T02:54:42.224Z,15.88
2023-05-05T02:57:15.512Z,15.88
2023-05-05T02:59:55.084Z,15.89
2023-05-05T03:02:45.016Z,15.82
2023-05-05T03:05:33.472Z,15.82
2023-05-05T03:08:06.409Z,15.77
2023-05-05T03:10:42.040Z,15.66
2023-05-05T03:13:13.725Z,15.63
2023-05-05T03:15:48.446Z,15.68
2023-05-05T03:18:36.278Z,15.61
2023-05-05T03:21:23.855Z,15.41
2023-05-05T03:23:54.592Z,15.63
2023-05-05T03:26:25.054Z,15.48
2023-05-05T03:29:12.782Z,15.99
2023-05-05T03:31:59.337Z,16.09
2023-05-05T03:34:47.101Z,16.32
2023-05-05T03:37:16.366Z,15.86
2023-05-05T03:39:47.196Z,16.61
2023-05-05T03:42:34.639Z,16.60
2023-05-05T03:45:03.891Z,16.90
2023-05-05T03:47:34.619Z,17.02
2023-05-05T03:50:03.774Z,17.13
2023-05-05T03:52:32.965Z,17.31
2023-05-05T03:55:03.612Z,17.60
2023-05-05T03:57:34.745Z,17.53
2023-05-05T04:00:03.990Z,17.68
2023-05-05T04:02:39.023Z,17.76
2023-05-05T04:05:09.821Z,17.97
2023-05-05T04:07:38.983Z,18.19
2023-05-05T04:10:11.097Z,18.50
2023-05-05T04:12:59.018Z,18.80
2023-05-05T04:15:30.400Z,18.87
2023-05-05T04:18:00.131Z,18.83
2023-05-05T04:20:31.027Z,19.04
2023-05-05T04:23:00.405Z,18.79
2023-05-05T04:25:31.099Z,18.83
2023-05-05T04:28:00.222Z,19.11
2023-05-05T04:30:29.473Z,19.18
2023-05-05T04:33:15.605Z,19.40
2023-05-05T04:36:02.714Z,19.23
2023-05-05T04:38:31.977Z,19.50
2023-05-05T04:41:02.574Z,19.65
2023-05-05T04:43:31.738Z,19.79
2023-05-05T04:46:19.160Z,19.96
2023-05-05T04:49:23.830Z,20.13
2023-05-05T04:51:52.501Z,20.67
2023-05-05T04:54:21.837Z,20.61
2023-05-05T04:56:52.522Z,20.94
2023-05-05T04:59:56.870Z,20.93
2023-05-05T05:02:26.125Z,21.03
2023-05-05T05:04:55.585Z,21.01
2023-05-05T05:07:43.029Z,20.87
2023-05-05T05:10:12.729Z,20.68
2023-05-05T05:13:01.894Z,20.56
2023-05-05T05:15:31.105Z,20.44
2023-05-05T05:18:18.454Z,20.27
2023-05-05T05:20:48.028Z,20.18
2023-05-05T05:23:17.127Z,20.16
2023-05-05T05:25:46.621Z,20.32
2023-05-05T05:28:17.242Z,20.55
2023-05-05T05:30:46.505Z,20.73
2023-05-05T05:33:32.621Z,20.95
2023-05-05T05:36:01.910Z,20.43
2023-05-05T05:38:31.103Z,21.07
2023-05-05T05:41:17.065Z,21.53
2023-05-05T05:43:47.882Z,21.71
2023-05-05T05:46:35.353Z,22.09
2023-05-05T05:49:22.533Z,22.48
2023-05-05T05:51:51.747Z,22.43
2023-05-05T05:54:39.440Z,21.83
2023-05-05T05:57:08.790Z,22.22
2023-05-05T05:59:45.140Z,21.62
2023-05-05T06:02:17.660Z,21.34
2023-05-05T06:05:05.057Z,20.99
2023-05-05T06:07:35.855Z,20.62
2023-05-05T06:10:22.778Z,20.43
2023-05-05T06:12:55.590Z,19.90
2023-05-05T06:15:26.464Z,20.38
2023-05-05T06:17:55.717Z,20.76
2023-05-05T06:20:25.464Z,20.60
2023-05-05T06:22:55.021Z,21.44
2023-05-05T06:25:24.248Z,21.47
2023-05-05T06:27:53.684Z,21.59
2023-05-05T06:30:22.934Z,21.69
2023-05-05T06:32:54.861Z,21.19
2023-05-05T06:35:24.817Z,21.35
2023-05-05T06:37:54.061Z,21.07
2023-05-05T06:40:32.334Z,20.49
2023-05-05T06:43:01.547Z,20.43
2023-05-05T06:46:06.463Z,21.95
2023-05-05T06:48:37.356Z,22.44
2023-05-05T06:51:06.585Z,22.91
2023-05-05T06:53:53.766Z,23.46
2023-05-05T06:56:22.914Z,23.75
2023-05-05T06:58:52.294Z,24.00
2023-05-05T07:01:39.283Z,24.21
2023-05-05T07:04:09.975Z,24.01
2023-05-05T07:06:58.827Z,24.00
2023-05-05T07:09:28.128Z,23.71
2023-05-05T07:12:32.558Z,23.52
2023-05-05T07:15:07.044Z,23.34
2023-05-05T07:18:02.360Z,23.53
2023-05-05T07:20:33.079Z,23.51
2023-05-05T07:23:02.261Z,23.40
2023-05-05T07:25:31.465Z,23.00
2023-05-05T07:28:00.829Z,23.10
2023-05-05T07:30:30.065Z,22.87
2023-05-05T07:32:59.297Z,22.92
2023-05-05T07:35:29.075Z,23.00
2023-05-05T07:37:59.782Z,23.30
2023-05-05T07:40:29.022Z,23.75
2023-05-05T07:42:58.144Z,24.05
2023-05-05T07:45:29.356Z,24.33
2023-05-05T07:47:58.640Z,24.57
2023-05-05T07:50:28.086Z,24.77
2023-05-05T07:53:06.144Z,24.88
2023-05-05T07:55:44.181Z,24.98
2023-05-05T07:58:13.400Z,25.04
2023-05-05T08:00:44.260Z,25.30
2023-05-05T08:03:13.903Z,25.58
2023-05-05T08:06:00.026Z,25.38
2023-05-05T08:08:46.023Z,25.26
2023-05-05T08:11:35.298Z,25.27
2023-05-05T08:14:04.529Z,25.37
2023-05-05T08:16:34.017Z,25.17
2023-05-05T08:19:06.282Z,24.93
2023-05-05T08:21:39.071Z,24.73
